Time;durP1;ratioP1;P1;durP2;ratioP2;P2;SDS_P1;SDS_P2;PMS_P1;PMS_P2;Temp;Humidity;BMP_temperature;BMP_pressure;BME280_temperature;BME280_humidity;BME280_pressure;Samples;Min_cycle;Max_cycle;Signal;HPM_P1;HPM_P2
2023/08/16 00:01:03;;;;;;;5.22;2.90;;;;;;;;;;5094428;28;20223;-92
2023/08/16 00:03:31;;;;;;;3.70;2.70;;;;;;;;;;5094293;28;20203;-92
2023/08/16 00:05:58;;;;;;;3.30;3.00;;;;;;;;;;5093626;28;20604;-92
2023/08/16 00:08:25;;;;;;;3.08;2.78;;;;;;;;;;5094577;28;20226;-92
2023/08/16 00:10:52;;;;;;;3.17;2.70;;;;;;;;;;5087645;28;20202;-92
2023/08/16 00:13:19;;;;;;;3.00;2.47;;;;;;;;;;5074568;28;20749;-91
2023/08/16 00:15:46;;;;;;;2.97;2.78;;;;;;;;;;5074168;28;20219;-92
2023/08/16 00:18:15;;;;;;;4.60;2.58;;;;;;;;;;5075045;28;20735;-92
2023/08/16 00:20:42;;;;;;;3.22;2.92;;;;;;;;;;5074777;28;20224;-92
2023/08/16 00:23:09;;;;;;;4.05;2.85;;;;;;;;;;5074069;28;20251;-92
2023/08/16 00:25:36;;;;;;;2.70;2.50;;;;;;;;;;5073581;28;20229;-92
2023/08/16 00:28:03;;;;;;;2.40;2.30;;;;;;;;;;5073185;28;20346;-93
2023/08/16 00:30:30;;;;;;;2.58;2.17;;;;;;;;;;5074201;28;20213;-92
2023/08/16 00:32:57;;;;;;;2.60;2.40;;;;;;;;;;5078255;28;20243;-92
2023/08/16 00:35:26;;;;;;;3.50;2.38;;;;;;;;;;5078350;28;20241;-92
2023/08/16 00:37:53;;;;;;;3.25;2.80;;;;;;;;;;5078400;28;20240;-92
2023/08/16 00:40:21;;;;;;;4.55;2.50;;;;;;;;;;5078851;28;20210;-93
2023/08/16 00:42:49;;;;;;;4.07;2.30;;;;;;;;;;5080735;28;20237;-93
2023/08/16 00:45:16;;;;;;;2.67;2.47;;;;;;;;;;5078961;28;20225;-92
2023/08/16 00:47:44;;;;;;;3.17;2.88;;;;;;;;;;5077117;28;20752;-93
2023/08/16 00:50:11;;;;;;;3.05;2.78;;;;;;;;;;5078851;28;20208;-92
2023/08/16 00:52:40;;;;;;;3.00;2.50;;;;;;;;;;5078337;28;20245;-93
2023/08/16 00:55:07;;;;;;;3.50;3.20;;;;;;;;;;5079632;28;20634;-93
2023/08/16 00:57:34;;;;;;;3.20;2.90;;;;;;;;;;5078481;28;20713;-93
2023/08/16 01:00:01;;;;;;;4.88;3.30;;;;;;;;;;5078731;28;20197;-93
2023/08/16 01:02:28;;;;;;;5.97;3.17;;;;;;;;;;5077088;28;20666;-92
2023/08/16 01:04:57;;;;;;;3.30;3.00;;;;;;;;;;5094894;28;20240;-92
2023/08/16 01:07:24;;;;;;;3.10;2.67;;;;;;;;;;5097380;28;20671;-93
2023/08/16 01:09:52;;;;;;;3.28;2.97;;;;;;;;;;5098569;28;20213;-92
2023/08/16 01:12:24;;;;;;;3.00;2.80;;;;;;;;;;5097110;28;20232;-92
2023/08/16 01:14:54;;;;;;;3.30;2.97;;;;;;;;;;5097454;28;20706;-94
2023/08/16 01:17:23;;;;;;;2.80;2.60;;;;;;;;;;5097490;28;20233;-93
2023/08/16 01:19:51;;;;;;;3.70;2.75;;;;;;;;;;5097923;28;20205;-92
2023/08/16 01:22:22;;;;;;;3.55;2.85;;;;;;;;;;5097580;28;20236;-93
2023/08/16 01:25:08;;;;;;;2.90;2.67;;;;;;;;;;5098282;28;20258;-93
2023/08/16 01:27:37;;;;;;;2.83;2.63;;;;;;;;;;5096643;28;20771;-93
2023/08/16 01:30:04;;;;;;;3.63;3.33;;;;;;;;;;5097524;28;20197;-92
2023/08/16 01:32:32;;;;;;;2.50;2.30;;;;;;;;;;5097446;28;20232;-92
2023/08/16 01:34:59;;;;;;;5.47;2.83;;;;;;;;;;5097554;28;20270;-92
2023/08/16 01:37:27;;;;;;;4.53;3.00;;;;;;;;;;5096306;28;20220;-93
2023/08/16 01:39:54;;;;;;;3.15;2.92;;;;;;;;;;5097293;28;20200;-94
2023/08/16 01:42:21;;;;;;;3.90;2.60;;;;;;;;;;5095977;28;20243;-91
2023/08/16 01:44:51;;;;;;;4.05;2.95;;;;;;;;;;5097035;28;20307;-92
2023/08/16 01:47:18;;;;;;;5.00;2.72;;;;;;;;;;5096331;28;20236;-93
2023/08/16 01:49:46;;;;;;;3.15;2.95;;;;;;;;;;5097556;28;20211;-93
2023/08/16 01:52:13;;;;;;;5.15;3.10;;;;;;;;;;5095749;28;20232;-92
2023/08/16 01:54:40;;;;;;;5.07;3.17;;;;;;;;;;5096473;28;20728;-92
2023/08/16 01:57:07;;;;;;;3.55;3.25;;;;;;;;;;5095993;28;20698;-92
2023/08/16 01:59:34;;;;;;;3.42;2.97;;;;;;;;;;5098135;28;20207;-94
2023/08/16 02:02:02;;;;;;;3.38;3.08;;;;;;;;;;5097779;28;20231;-92
2023/08/16 02:04:29;;;;;;;4.55;3.28;;;;;;;;;;5098430;28;20240;-93
2023/08/16 02:06:57;;;;;;;4.63;3.00;;;;;;;;;;5101175;28;20242;-93
2023/08/16 02:09:24;;;;;;;3.50;3.13;;;;;;;;;;5102934;28;20213;-93
2023/08/16 02:11:51;;;;;;;3.22;2.83;;;;;;;;;;5103463;28;20256;-92
2023/08/16 02:14:18;;;;;;;3.25;3.05;;;;;;;;;;5102008;28;20216;-92
2023/08/16 02:16:45;;;;;;;3.78;3.25;;;;;;;;;;5099705;28;20240;-93
2023/08/16 02:19:14;;;;;;;4.55;3.38;;;;;;;;;;5097658;28;20199;-93
2023/08/16 02:21:41;;;;;;;3.97;3.58;;;;;;;;;;5096345;28;20237;-93
2023/08/16 02:24:09;;;;;;;3.63;2.92;;;;;;;;;;5097005;28;20204;-93
2023/08/16 02:26:36;;;;;;;4.32;3.20;;;;;;;;;;5096176;28;20240;-92
2023/08/16 02:29:03;;;;;;;4.50;3.10;;;;;;;;;;5096911;28;20236;-92
2023/08/16 02:31:30;;;;;;;4.15;3.30;;;;;;;;;;5096692;28;20252;-93
2023/08/16 02:33:57;;;;;;;4.72;3.65;;;;;;;;;;5096739;28;20211;-93
2023/08/16 02:36:26;;;;;;;7.75;3.40;;;;;;;;;;5096344;28;20642;-92
2023/08/16 02:38:53;;;;;;;3.88;3.55;;;;;;;;;;5096449;28;20288;-91
2023/08/16 02:41:20;;;;;;;3.55;3.25;;;;;;;;;;5094577;28;20236;-92
2023/08/16 02:43:47;;;;;;;4.22;3.45;;;;;;;;;;5095113;28;20435;-93
2023/08/16 02:46:14;;;;;;;4.13;3.72;;;;;;;;;;5095574;28;20244;-93
2023/08/16 02:48:41;;;;;;;6.65;4.43;;;;;;;;;;5096205;28;20205;-93
2023/08/16 02:51:08;;;;;;;4.57;4.05;;;;;;;;;;5095726;28;20243;-92
2023/08/16 02:53:37;;;;;;;4.10;3.67;;;;;;;;;;5096027;28;20220;-93
2023/08/16 02:56:04;;;;;;;4.22;3.83;;;;;;;;;;5095656;28;20233;-92
2023/08/16 02:58:31;;;;;;;3.88;3.33;;;;;;;;;;5095719;28;20223;-93
2023/08/16 03:00:58;;;;;;;5.22;3.75;;;;;;;;;;5095484;28;20678;-93
2023/08/16 03:03:25;;;;;;;5.80;3.85;;;;;;;;;;5095976;28;20205;-93
2023/08/16 03:05:53;;;;;;;5.47;3.70;;;;;;;;;;5095260;28;20244;-93
2023/08/16 03:08:20;;;;;;;4.22;3.75;;;;;;;;;;5096122;28;20627;-93
2023/08/16 03:10:48;;;;;;;4.30;3.85;;;;;;;;;;5084666;28;20208;-92
2023/08/16 03:13:15;;;;;;;4.03;3.72;;;;;;;;;;5075741;28;20295;-92
2023/08/16 03:15:42;;;;;;;4.40;3.97;;;;;;;;;;5075218;28;20221;-88
2023/08/16 03:18:09;;;;;;;4.18;3.78;;;;;;;;;;5075504;28;20208;-92
2023/08/16 03:20:36;;;;;;;3.90;3.60;;;;;;;;;;5075282;28;20212;-95
2023/08/16 03:23:04;;;;;;;6.95;4.15;;;;;;;;;;5075063;28;20778;-92
2023/08/16 03:25:31;;;;;;;4.35;3.95;;;;;;;;;;5075423;28;20240;-92
2023/08/16 03:27:59;;;;;;;4.28;3.88;;;;;;;;;;5075091;28;20240;-92
2023/08/16 03:30:26;;;;;;;3.85;3.45;;;;;;;;;;5074818;28;20203;-92
2023/08/16 03:32:53;;;;;;;5.13;3.88;;;;;;;;;;5074450;28;20221;-92
2023/08/16 03:35:20;;;;;;;3.90;3.60;;;;;;;;;;5086627;28;20231;-92
2023/08/16 03:37:48;;;;;;;4.03;3.63;;;;;;;;;;5094725;28;20236;-92
2023/08/16 03:40:15;;;;;;;4.82;3.88;;;;;;;;;;5093678;28;20212;-91
2023/08/16 03:42:42;;;;;;;4.05;3.25;;;;;;;;;;5092928;28;20232;-92
2023/08/16 03:45:11;;;;;;;4.22;3.60;;;;;;;;;;5094713;28;20240;-93
2023/08/16 03:47:38;;;;;;;5.10;3.83;;;;;;;;;;5094722;28;20240;-92
2023/08/16 03:50:06;;;;;;;4.13;3.72;;;;;;;;;;5077396;28;20217;-92
2023/08/16 03:52:33;;;;;;;6.00;3.88;;;;;;;;;;5074284;28;20312;-92
2023/08/16 03:55:00;;;;;;;5.78;3.78;;;;;;;;;;5074832;28;20661;-92
2023/08/16 03:57:27;;;;;;;5.80;3.75;;;;;;;;;;5075072;28;20710;-92
2023/08/16 03:59:54;;;;;;;4.00;3.60;;;;;;;;;;5088400;28;20196;-93
2023/08/16 04:02:22;;;;;;;6.00;3.65;;;;;;;;;;5095151;28;20235;-92
2023/08/16 04:04:52;;;;;;;3.95;3.50;;;;;;;;;;5094496;28;20244;-92
2023/08/16 04:07:19;;;;;;;4.35;3.88;;;;;;;;;;5096917;28;20323;-90
2023/08/16 04:09:46;;;;;;;4.90;3.83;;;;;;;;;;5098607;28;20560;-89
2023/08/16 04:12:14;;;;;;;3.95;3.53;;;;;;;;;;5095974;28;20606;-89
2023/08/16 04:14:41;;;;;;;5.25;3.60;;;;;;;;;;5100345;28;20671;-89
2023/08/16 04:17:09;;;;;;;4.25;3.78;;;;;;;;;;5097373;28;20234;-89
2023/08/16 04:19:37;;;;;;;4.07;3.65;;;;;;;;;;5095706;28;20200;-89
2023/08/16 04:22:04;;;;;;;5.10;3.83;;;;;;;;;;5098352;28;20611;-89
2023/08/16 04:24:31;;;;;;;3.80;3.50;;;;;;;;;;5096401;28;20771;-89
2023/08/16 04:26:58;;;;;;;3.70;3.40;;;;;;;;;;5095952;28;20259;-89
2023/08/16 04:29:25;;;;;;;4.97;3.88;;;;;;;;;;5096873;28;20674;-89
2023/08/16 04:31:53;;;;;;;6.13;3.67;;;;;;;;;;5097344;28;20243;-90
2023/08/16 04:34:20;;;;;;;4.43;3.95;;;;;;;;;;5097915;28;20219;-90
2023/08/16 04:36:48;;;;;;;5.80;4.22;;;;;;;;;;5097573;28;20228;-90
2023/08/16 04:39:15;;;;;;;5.07;4.45;;;;;;;;;;5099148;28;20201;-90
2023/08/16 04:41:42;;;;;;;5.82;4.68;;;;;;;;;;5095446;28;20225;-91
2023/08/16 04:44:09;;;;;;;5.00;4.05;;;;;;;;;;5096943;28;20238;-91
2023/08/16 04:46:36;;;;;;;7.47;4.43;;;;;;;;;;5097311;28;20236;-91
2023/08/16 04:49:03;;;;;;;4.47;4.07;;;;;;;;;;5098167;28;20211;-91
2023/08/16 04:51:31;;;;;;;7.55;4.93;;;;;;;;;;5095455;28;20252;-91
2023/08/16 04:53:59;;;;;;;7.57;4.57;;;;;;;;;;5097911;28;20205;-91
2023/08/16 04:56:26;;;;;;;7.80;4.63;;;;;;;;;;5079598;28;20237;-91
2023/08/16 04:58:53;;;;;;;4.60;4.20;;;;;;;;;;5077430;28;20666;-91
2023/08/16 05:01:20;;;;;;;5.65;4.95;;;;;;;;;;5097338;28;20709;-91
2023/08/16 05:03:50;;;;;;;9.40;4.57;;;;;;;;;;5097720;28;20675;-91
2023/08/16 05:06:17;;;;;;;9.18;5.10;;;;;;;;;;5084254;22;20233;-88
2023/08/16 05:08:44;;;;;;;8.02;5.40;;;;;;;;;;5055131;28;20221;-88
2023/08/16 05:11:13;;;;;;;11.48;5.90;;;;;;;;;;5055240;28;20237;-89
2023/08/16 05:13:40;;;;;;;10.27;6.65;;;;;;;;;;5055955;28;20683;-88
2023/08/16 05:16:07;;;;;;;12.68;6.50;;;;;;;;;;5055104;28;20249;-90
2023/08/16 05:18:34;;;;;;;17.33;7.50;;;;;;;;;;5054945;28;20209;-89
2023/08/16 05:21:02;;;;;;;15.00;7.55;;;;;;;;;;5055320;28;20228;-90
2023/08/16 05:23:30;;;;;;;24.02;8.30;;;;;;;;;;5055460;28;20202;-90
2023/08/16 05:25:57;;;;;;;20.33;8.93;;;;;;;;;;5052772;28;20238;-90
2023/08/16 05:28:25;;;;;;;31.15;9.50;;;;;;;;;;5051519;28;20221;-90
2023/08/16 05:30:52;;;;;;;23.20;9.38;;;;;;;;;;5055001;28;20206;-90
2023/08/16 05:33:19;;;;;;;30.77;11.35;;;;;;;;;;5055368;28;20210;-90
2023/08/16 05:35:46;;;;;;;38.00;13.73;;;;;;;;;;5054146;28;20303;-90
2023/08/16 05:38:13;;;;;;;39.08;13.52;;;;;;;;;;5056181;28;20198;-90
2023/08/16 05:40:40;;;;;;;40.05;12.98;;;;;;;;;;5061687;28;20201;-90
2023/08/16 05:43:07;;;;;;;42.45;12.38;;;;;;;;;;5054825;28;20234;-88
2023/08/16 05:45:36;;;;;;;37.97;12.23;;;;;;;;;;5055056;28;20230;-91
2023/08/16 05:48:03;;;;;;;38.45;13.25;;;;;;;;;;5050969;28;20233;-91
2023/08/16 05:50:30;;;;;;;51.20;14.23;;;;;;;;;;5061793;28;20206;-90
2023/08/16 05:52:57;;;;;;;46.97;14.73;;;;;;;;;;5046452;28;20466;-91
2023/08/16 05:55:24;;;;;;;50.85;14.52;;;;;;;;;;5055124;28;20233;-90
2023/08/16 05:57:51;;;;;;;54.40;15.75;;;;;;;;;;5061516;28;20711;-90
2023/08/16 06:00:19;;;;;;;56.40;15.85;;;;;;;;;;5055083;28;20209;-90
2023/08/16 06:02:47;;;;;;;51.88;15.73;;;;;;;;;;5059870;28;20221;-90
2023/08/16 06:05:14;;;;;;;58.15;14.88;;;;;;;;;;5054604;28;20234;-90
2023/08/16 06:07:41;;;;;;;68.47;16.58;;;;;;;;;;5053706;28;20236;-90
2023/08/16 06:10:09;;;;;;;52.63;15.65;;;;;;;;;;5054644;28;20206;-90
2023/08/16 06:12:36;;;;;;;70.13;16.73;;;;;;;;;;5053701;28;20234;-90
2023/08/16 06:15:03;;;;;;;61.97;16.02;;;;;;;;;;5054691;28;20252;-90
2023/08/16 06:17:30;;;;;;;68.65;16.20;;;;;;;;;;5046453;28;20226;-90
2023/08/16 06:19:58;;;;;;;58.35;14.90;;;;;;;;;;5054304;28;20561;-90
2023/08/16 06:22:25;;;;;;;64.72;14.15;;;;;;;;;;5054070;28;20288;-90
2023/08/16 06:24:53;;;;;;;48.15;13.65;;;;;;;;;;5055036;28;20230;-90
2023/08/16 06:27:20;;;;;;;48.20;14.35;;;;;;;;;;5053975;28;20618;-90
2023/08/16 06:29:47;;;;;;;36.67;13.02;;;;;;;;;;5053278;28;20209;-90
2023/08/16 06:32:15;;;;;;;37.38;13.02;;;;;;;;;;5059209;28;20309;-91
2023/08/16 06:34:42;;;;;;;42.75;14.52;;;;;;;;;;5064433;28;20228;-90
2023/08/16 06:37:10;;;;;;;35.10;13.82;;;;;;;;;;5055824;28;20233;-91
2023/08/16 06:39:38;;;;;;;32.97;13.60;;;;;;;;;;5054788;28;20209;-91
2023/08/16 06:42:05;;;;;;;31.98;14.20;;;;;;;;;;5052339;28;20727;-91
2023/08/16 06:44:32;;;;;;;29.70;14.00;;;;;;;;;;5053976;28;20213;-91
2023/08/16 06:46:59;;;;;;;32.67;14.88;;;;;;;;;;5030337;28;20684;-90
2023/08/16 06:49:26;;;;;;;36.65;14.15;;;;;;;;;;5055610;28;20203;-91
2023/08/16 06:51:53;;;;;;;34.33;14.80;;;;;;;;;;5075959;28;20244;-90
2023/08/16 06:54:22;;;;;;;29.20;13.82;;;;;;;;;;5076305;28;20194;-91
2023/08/16 06:56:49;;;;;;;26.65;13.20;;;;;;;;;;5075489;28;20224;-90
2023/08/16 06:59:16;;;;;;;27.60;14.13;;;;;;;;;;5076611;28;20193;-91
2023/08/16 07:01:43;;;;;;;24.85;13.52;;;;;;;;;;5064760;28;20237;-86
2023/08/16 07:04:10;;;;;;;29.05;14.05;;;;;;;;;;5071422;28;20201;-84
2023/08/16 07:06:37;;;;;;;24.83;14.48;;;;;;;;;;5068773;28;20229;-86
2023/08/16 07:09:05;;;;;;;24.45;13.50;;;;;;;;;;5054302;28;20221;-85
2023/08/16 07:11:33;;;;;;;27.35;16.08;;;;;;;;;;5053996;28;20222;-85
2023/08/16 07:14:00;;;;;;;23.40;14.88;;;;;;;;;;5052797;28;20217;-84
2023/08/16 07:16:27;;;;;;;25.27;14.85;;;;;;;;;;5057269;28;20237;-86
2023/08/16 07:18:54;;;;;;;22.23;14.00;;;;;;;;;;5053285;28;20206;-85
2023/08/16 07:21:22;;;;;;;20.75;13.52;;;;;;;;;;5052860;28;20230;-83
2023/08/16 07:23:49;;;;;;;23.02;14.77;;;;;;;;;;5050617;28;20304;-84
2023/08/16 07:26:16;;;;;;;20.58;14.45;;;;;;;;;;5050823;28;20659;-83
2023/08/16 07:28:44;;;;;;;17.75;11.48;;;;;;;;;;5051269;28;20225;-84
2023/08/16 07:31:11;;;;;;;15.93;11.93;;;;;;;;;;5051235;28;20237;-84
2023/08/16 07:33:38;;;;;;;14.80;10.55;;;;;;;;;;5051392;28;20678;-84
2023/08/16 07:36:06;;;;;;;13.70;10.02;;;;;;;;;;5050797;28;20241;-84
2023/08/16 07:38:33;;;;;;;12.93;9.50;;;;;;;;;;5051267;28;20210;-83
2023/08/16 07:41:00;;;;;;;14.00;10.52;;;;;;;;;;5050220;28;20633;-85
2023/08/16 07:43:29;;;;;;;12.23;9.70;;;;;;;;;;5051785;28;20206;-84
2023/08/16 07:45:57;;;;;;;11.32;7.60;;;;;;;;;;5048726;28;20648;-84
2023/08/16 07:48:24;;;;;;;9.85;6.97;;;;;;;;;;5050292;28;20214;-84
2023/08/16 07:50:51;;;;;;;7.93;6.90;;;;;;;;;;5050644;28;20605;-84
2023/08/16 07:53:18;;;;;;;7.80;6.90;;;;;;;;;;5051104;28;20205;-83
2023/08/16 07:55:45;;;;;;;7.75;6.30;;;;;;;;;;5049905;28;20245;-84
2023/08/16 07:58:15;;;;;;;8.15;5.90;;;;;;;;;;5056665;28;20667;-85
2023/08/16 08:00:43;;;;;;;7.20;5.80;;;;;;;;;;5048862;28;20225;-86
2023/08/16 08:03:11;;;;;;;6.28;4.57;;;;;;;;;;5051181;28;20228;-85
2023/08/16 08:05:38;;;;;;;6.30;5.68;;;;;;;;;;5047540;28;20225;-85
2023/08/16 08:08:07;;;;;;;6.28;5.63;;;;;;;;;;5050560;28;20240;-85
2023/08/16 08:10:34;;;;;;;5.93;5.32;;;;;;;;;;5051230;28;20202;-85
2023/08/16 08:13:02;;;;;;;5.53;5.00;;;;;;;;;;5050158;28;20233;-86
2023/08/16 08:15:29;;;;;;;6.13;4.50;;;;;;;;;;5050313;28;20707;-85
2023/08/16 08:17:57;;;;;;;4.35;3.92;;;;;;;;;;5050212;28;20218;-87
2023/08/16 08:20:25;;;;;;;7.03;4.10;;;;;;;;;;5055265;28;20217;-89
2023/08/16 08:22:52;;;;;;;4.97;4.30;;;;;;;;;;5054550;28;20445;-89
2023/08/16 08:25:19;;;;;;;4.72;4.22;;;;;;;;;;5052688;28;20236;-89
2023/08/16 08:27:46;;;;;;;5.55;4.10;;;;;;;;;;5053554;28;20226;-89
2023/08/16 08:30:15;;;;;;;5.57;4.00;;;;;;;;;;5052725;28;20209;-89
2023/08/16 08:32:42;;;;;;;4.50;4.10;;;;;;;;;;5052424;28;20672;-89
2023/08/16 08:35:09;;;;;;;5.65;4.20;;;;;;;;;;5053428;28;20221;-89
2023/08/16 08:37:38;;;;;;;4.20;3.80;;;;;;;;;;5054700;28;20230;-90
2023/08/16 08:40:06;;;;;;;4.38;3.55;;;;;;;;;;5035018;28;20217;-92
2023/08/16 08:42:33;;;;;;;6.03;3.85;;;;;;;;;;5042997;28;20233;-88
2023/08/16 08:45:01;;;;;;;6.38;4.20;;;;;;;;;;5054956;28;20230;-89
2023/08/16 08:47:30;;;;;;;5.32;4.05;;;;;;;;;;5049906;28;20766;-93
2023/08/16 08:49:58;;;;;;;4.95;3.63;;;;;;;;;;5048939;28;20202;-89
2023/08/16 08:52:27;;;;;;;5.18;3.45;;;;;;;;;;5052355;28;20226;-88
2023/08/16 08:54:55;;;;;;;4.22;3.83;;;;;;;;;;5053970;28;20614;-88
2023/08/16 08:57:23;;;;;;;4.65;3.80;;;;;;;;;;5056217;28;20272;-90
2023/08/16 08:59:53;;;;;;;4.25;3.47;;;;;;;;;;5056481;28;20201;-88
2023/08/16 09:02:20;;;;;;;3.85;3.50;;;;;;;;;;5056123;28;20324;-90
2023/08/16 09:04:48;;;;;;;7.50;4.18;;;;;;;;;;5058713;28;20233;-89
2023/08/16 09:07:17;;;;;;;4.60;3.70;;;;;;;;;;5057155;28;20257;-90
2023/08/16 09:09:44;;;;;;;3.83;3.53;;;;;;;;;;5061394;28;20233;-89
2023/08/16 09:12:14;;;;;;;4.13;3.72;;;;;;;;;;5058207;28;20290;-88
2023/08/16 09:14:41;;;;;;;6.72;4.38;;;;;;;;;;5056328;28;20233;-89
2023/08/16 09:17:08;;;;;;;3.83;3.33;;;;;;;;;;5056606;28;20238;-90
2023/08/16 09:19:43;;;;;;;5.15;3.45;;;;;;;;;;5058122;28;20202;-91
2023/08/16 09:22:11;;;;;;;3.83;3.42;;;;;;;;;;5059448;28;20234;-92
2023/08/16 09:24:40;;;;;;;3.67;3.30;;;;;;;;;;5050199;28;20760;-92
2023/08/16 09:27:07;;;;;;;5.40;3.67;;;;;;;;;;5066314;28;20256;-92
2023/08/16 09:29:39;;;;;;;4.35;3.85;;;;;;;;;;5067381;28;20236;-91
2023/08/16 09:32:07;;;;;;;4.32;3.92;;;;;;;;;;5074723;28;20286;-91
2023/08/16 09:34:34;;;;;;;4.13;3.75;;;;;;;;;;5071434;28;20256;-92
2023/08/16 09:37:02;;;;;;;6.38;3.90;;;;;;;;;;5071476;28;20241;-92
2023/08/16 09:39:30;;;;;;;4.72;3.92;;;;;;;;;;5076663;28;20213;-92
2023/08/16 09:41:57;;;;;;;3.78;3.47;;;;;;;;;;5073159;28;20241;-92
2023/08/16 09:44:28;;;;;;;4.15;3.75;;;;;;;;;;5073385;28;20236;-91
2023/08/16 09:46:57;;;;;;;3.42;3.13;;;;;;;;;;5070975;28;20253;-91
2023/08/16 09:49:24;;;;;;;3.67;3.38;;;;;;;;;;5058488;28;20719;-94
2023/08/16 09:51:51;;;;;;;4.45;3.88;;;;;;;;;;5066041;28;20229;-92
2023/08/16 09:54:19;;;;;;;4.40;4.00;;;;;;;;;;5054197;28;20593;-91
2023/08/16 09:56:47;;;;;;;4.68;3.92;;;;;;;;;;5063009;28;20229;-92
2023/08/16 09:59:15;;;;;;;5.80;3.25;;;;;;;;;;5066978;28;20205;-90
2023/08/16 10:01:42;;;;;;;4.53;3.90;;;;;;;;;;5058058;28;20230;-91
2023/08/16 10:04:11;;;;;;;4.10;3.72;;;;;;;;;;5057873;28;20994;-91
2023/08/16 10:06:39;;;;;;;3.55;3.20;;;;;;;;;;5063417;28;20242;-90
2023/08/16 10:09:09;;;;;;;4.30;3.20;;;;;;;;;;5063086;28;20248;-91
2023/08/16 10:11:37;;;;;;;3.25;2.80;;;;;;;;;;5050598;28;20249;-90
2023/08/16 10:14:07;;;;;;;3.95;3.38;;;;;;;;;;5056085;28;20214;-90
2023/08/16 10:16:36;;;;;;;4.32;3.60;;;;;;;;;;5056131;28;20233;-90
2023/08/16 10:19:04;;;;;;;4.65;2.92;;;;;;;;;;5058227;28;20208;-90
2023/08/16 10:21:35;;;;;;;4.43;3.22;;;;;;;;;;5056902;28;20723;-90
2023/08/16 10:24:02;;;;;;;4.30;3.85;;;;;;;;;;5057976;28;20259;-90
2023/08/16 10:26:30;;;;;;;5.85;3.53;;;;;;;;;;5053945;28;20230;-89
2023/08/16 10:29:00;;;;;;;5.35;3.95;;;;;;;;;;5054210;28;20312;-90
2023/08/16 10:31:30;;;;;;;4.10;3.70;;;;;;;;;;5060449;28;20587;-90
2023/08/16 10:33:57;;;;;;;4.28;3.60;;;;;;;;;;5063329;28;20652;-90
2023/08/16 10:36:25;;;;;;;6.03;3.50;;;;;;;;;;5060837;28;20240;-89
2023/08/16 10:38:56;;;;;;;4.07;3.60;;;;;;;;;;5056696;28;20206;-88
2023/08/16 10:41:23;;;;;;;3.83;3.45;;;;;;;;;;5068547;28;20275;-92
2023/08/16 10:43:51;;;;;;;3.70;3.40;;;;;;;;;;5069719;28;20240;-89
2023/08/16 10:46:26;;;;;;;3.50;3.20;;;;;;;;;;5061926;28;20240;-89
2023/08/16 10:48:56;;;;;;;3.40;3.00;;;;;;;;;;5056922;28;20225;-89
2023/08/16 10:51:23;;;;;;;4.53;2.75;;;;;;;;;;5073668;28;20248;-89
2023/08/16 10:53:50;;;;;;;2.92;2.58;;;;;;;;;;5072881;28;20241;-88
2023/08/16 10:56:19;;;;;;;3.42;2.63;;;;;;;;;;5055836;28;20233;-88
2023/08/16 10:58:49;;;;;;;3.22;2.35;;;;;;;;;;5057277;28;20205;-88
2023/08/16 11:01:17;;;;;;;3.55;2.78;;;;;;;;;;5055124;28;20502;-89
2023/08/16 11:03:46;;;;;;;5.15;2.90;;;;;;;;;;5062923;28;20212;-89
2023/08/16 11:06:13;;;;;;;3.70;3.42;;;;;;;;;;5068359;22;20238;-87
2023/08/16 11:08:41;;;;;;;3.33;2.85;;;;;;;;;;5041845;28;20250;-88
2023/08/16 11:11:08;;;;;;;5.53;2.42;;;;;;;;;;5044052;28;20287;-87
2023/08/16 11:13:37;;;;;;;2.70;2.50;;;;;;;;;;5046549;28;20218;-88
2023/08/16 11:16:04;;;;;;;3.33;2.75;;;;;;;;;;5046086;28;20241;-84
2023/08/16 11:18:32;;;;;;;3.67;2.95;;;;;;;;;;5051119;28;20218;-86
2023/08/16 11:20:59;;;;;;;3.05;2.78;;;;;;;;;;5050914;28;20210;-87
2023/08/16 11:23:33;;;;;;;3.40;3.03;;;;;;;;;;5052072;28;20198;-88
2023/08/16 11:26:01;;;;;;;6.75;3.00;;;;;;;;;;5048825;28;20264;-86
2023/08/16 11:28:28;;;;;;;3.15;2.92;;;;;;;;;;5044613;28;20656;-86
2023/08/16 11:31:00;;;;;;;3.00;2.70;;;;;;;;;;5042285;28;20660;-86
2023/08/16 11:33:32;;;;;;;3.10;2.80;;;;;;;;;;5041578;28;20207;-86
2023/08/16 11:35:59;;;;;;;3.45;3.15;;;;;;;;;;5040790;28;20225;-86
2023/08/16 11:38:27;;;;;;;3.05;2.83;;;;;;;;;;5041062;28;20555;-86
2023/08/16 11:40:54;;;;;;;5.47;2.95;;;;;;;;;;5039031;28;20202;-86
2023/08/16 11:43:26;;;;;;;3.03;2.78;;;;;;;;;;5042181;28;20199;-86
2023/08/16 11:45:53;;;;;;;4.25;2.90;;;;;;;;;;5038199;28;20214;-86
2023/08/16 11:48:24;;;;;;;3.30;3.00;;;;;;;;;;5041833;28;20198;-86
2023/08/16 11:50:51;;;;;;;3.97;2.97;;;;;;;;;;5038515;28;20226;-86
2023/08/16 11:53:18;;;;;;;3.33;3.03;;;;;;;;;;5043383;28;20581;-85
2023/08/16 11:55:56;;;;;;;4.35;2.88;;;;;;;;;;5044059;28;20217;-85
2023/08/16 11:58:23;;;;;;;2.78;2.58;;;;;;;;;;5042039;28;20307;-85
2023/08/16 12:00:51;;;;;;;5.00;3.47;;;;;;;;;;5041203;28;20213;-86
2023/08/16 12:03:18;;;;;;;3.50;3.20;;;;;;;;;;5043318;28;20679;-86
2023/08/16 12:05:49;;;;;;;6.18;3.22;;;;;;;;;;5042086;28;20231;-86
2023/08/16 12:08:20;;;;;;;3.75;2.90;;;;;;;;;;5041131;28;20214;-86
2023/08/16 12:10:53;;;;;;;4.43;3.30;;;;;;;;;;5043180;28;20724;-86
2023/08/16 12:13:20;;;;;;;3.97;3.03;;;;;;;;;;5041061;28;20206;-86
2023/08/16 12:15:48;;;;;;;3.53;3.20;;;;;;;;;;5045311;28;20240;-86
2023/08/16 12:18:15;;;;;;;3.60;3.10;;;;;;;;;;5040602;28;20210;-85
2023/08/16 12:20:42;;;;;;;4.75;3.45;;;;;;;;;;5039867;28;20268;-86
2023/08/16 12:23:11;;;;;;;4.68;3.60;;;;;;;;;;5038955;28;20210;-86
2023/08/16 12:25:38;;;;;;;3.17;2.88;;;;;;;;;;5042751;28;20227;-86
2023/08/16 12:28:06;;;;;;;2.95;2.75;;;;;;;;;;5044694;28;20522;-87
2023/08/16 12:30:33;;;;;;;5.15;3.42;;;;;;;;;;5046785;28;20227;-86
2023/08/16 12:33:00;;;;;;;3.03;2.83;;;;;;;;;;5053263;28;20234;-86
2023/08/16 12:35:27;;;;;;;3.60;2.97;;;;;;;;;;5054004;28;20222;-86
2023/08/16 12:37:54;;;;;;;3.88;2.70;;;;;;;;;;5053260;28;20230;-86
2023/08/16 12:40:25;;;;;;;4.20;2.80;;;;;;;;;;5047244;28;20208;-88
2023/08/16 12:42:52;;;;;;;2.95;2.72;;;;;;;;;;5054048;28;20409;-87
2023/08/16 12:45:19;;;;;;;2.85;2.65;;;;;;;;;;5045807;28;20229;-87
2023/08/16 12:47:46;;;;;;;3.72;2.90;;;;;;;;;;5053544;28;20229;-84
2023/08/16 12:50:13;;;;;;;3.97;2.63;;;;;;;;;;5053422;28;20236;-84
2023/08/16 12:52:40;;;;;;;3.22;2.80;;;;;;;;;;5053224;28;20230;-83
2023/08/16 12:55:07;;;;;;;2.75;2.55;;;;;;;;;;5053174;28;20715;-84
2023/08/16 12:57:36;;;;;;;3.38;3.08;;;;;;;;;;5042840;28;20234;-84
2023/08/16 13:00:06;;;;;;;2.53;2.30;;;;;;;;;;5044945;28;20666;-84
2023/08/16 13:02:33;;;;;;;3.65;2.67;;;;;;;;;;5041918;28;20273;-84
2023/08/16 13:05:00;;;;;;;2.80;2.60;;;;;;;;;;5046004;28;20509;-83
2023/08/16 13:07:27;;;;;;;2.70;2.50;;;;;;;;;;5052692;28;20595;-84
2023/08/16 13:09:54;;;;;;;3.60;2.60;;;;;;;;;;5053329;28;20292;-84
2023/08/16 13:12:21;;;;;;;3.22;2.50;;;;;;;;;;5044723;28;20706;-84
2023/08/16 13:14:50;;;;;;;4.10;2.50;;;;;;;;;;5053349;28;20206;-84
2023/08/16 13:17:17;;;;;;;3.42;2.97;;;;;;;;;;5052832;28;20229;-84
2023/08/16 13:19:44;;;;;;;2.90;2.38;;;;;;;;;;5054019;28;20198;-84
2023/08/16 13:22:13;;;;;;;3.28;2.30;;;;;;;;;;5053186;28;20257;-84
2023/08/16 13:24:40;;;;;;;3.35;2.58;;;;;;;;;;5053602;28;20217;-83
2023/08/16 13:27:07;;;;;;;3.17;2.88;;;;;;;;;;5052745;28;20245;-85
2023/08/16 13:29:34;;;;;;;2.70;2.50;;;;;;;;;;5053846;28;20249;-84
2023/08/16 13:32:02;;;;;;;2.75;2.50;;;;;;;;;;5052700;28;20225;-84
2023/08/16 13:34:29;;;;;;;3.30;3.00;;;;;;;;;;5053831;28;20208;-84
2023/08/16 13:36:56;;;;;;;3.55;2.60;;;;;;;;;;5052637;28;20230;-83
2023/08/16 13:39:24;;;;;;;2.88;2.67;;;;;;;;;;5053013;28;20217;-83
2023/08/16 13:41:51;;;;;;;2.58;2.38;;;;;;;;;;5052763;28;20225;-83
2023/08/16 13:44:18;;;;;;;4.20;2.80;;;;;;;;;;5052833;28;20217;-84
2023/08/16 13:46:45;;;;;;;2.85;2.65;;;;;;;;;;5052593;28;20229;-83
2023/08/16 13:49:13;;;;;;;3.65;2.78;;;;;;;;;;5052525;28;20218;-83
2023/08/16 13:51:40;;;;;;;3.30;2.60;;;;;;;;;;5052520;28;20597;-84
2023/08/16 13:54:07;;;;;;;2.88;2.60;;;;;;;;;;5052727;28;20667;-84
2023/08/16 13:56:34;;;;;;;3.13;2.88;;;;;;;;;;5052349;28;20679;-84
2023/08/16 13:59:01;;;;;;;2.60;2.40;;;;;;;;;;5052765;28;20209;-83
2023/08/16 14:01:28;;;;;;;2.63;2.42;;;;;;;;;;5052495;28;20229;-83
2023/08/16 14:03:56;;;;;;;2.97;2.70;;;;;;;;;;5053040;28;20241;-83
2023/08/16 14:06:24;;;;;;;2.65;2.45;;;;;;;;;;5039410;28;20234;-84
2023/08/16 14:08:51;;;;;;;3.35;2.65;;;;;;;;;;5052582;28;20206;-84
2023/08/16 14:11:19;;;;;;;2.80;2.60;;;;;;;;;;5052032;28;20238;-83
2023/08/16 14:13:46;;;;;;;2.78;2.55;;;;;;;;;;5057053;28;20722;-84
2023/08/16 14:16:13;;;;;;;8.05;2.47;;;;;;;;;;5051752;28;20728;-84
2023/08/16 14:18:40;;;;;;;3.55;2.50;;;;;;;;;;5052422;28;20811;-84
2023/08/16 14:21:07;;;;;;;3.60;2.30;;;;;;;;;;5051955;28;20237;-83
2023/08/16 14:23:35;;;;;;;3.58;2.47;;;;;;;;;;5052714;28;20253;-84
2023/08/16 14:26:02;;;;;;;3.17;2.63;;;;;;;;;;5047169;28;20229;-83
2023/08/16 14:28:29;;;;;;;2.80;2.60;;;;;;;;;;5050369;28;20225;-85
2023/08/16 14:30:56;;;;;;;2.60;2.40;;;;;;;;;;5051726;28;20702;-83
2023/08/16 14:33:24;;;;;;;2.47;2.30;;;;;;;;;;5052047;28;20206;-84
2023/08/16 14:35:51;;;;;;;2.45;2.28;;;;;;;;;;5044293;28;20253;-84
2023/08/16 14:38:18;;;;;;;5.13;2.50;;;;;;;;;;5046769;28;20667;-84
2023/08/16 14:40:46;;;;;;;2.67;2.47;;;;;;;;;;5040212;28;20226;-84